createdAt,value
2023-04-02T00:01:04.926Z,100854.59
2023-04-02T00:03:44.426Z,100856.47
2023-04-02T00:06:34.276Z,100864.31
2023-04-02T00:09:35.924Z,100873.81
2023-04-02T00:12:19.610Z,100871.41
2023-04-02T00:14:58.726Z,100877.34
2023-04-02T00:17:26.452Z,100902.59
2023-04-02T00:20:08.127Z,100888.91
2023-04-02T00:22:35.452Z,100889.91
2023-04-02T00:25:13.849Z,100890.84
2023-04-02T00:27:42.142Z,100898.56
2023-04-02T00:30:14.852Z,100902.06
2023-04-02T00:32:43.799Z,100907.28
2023-04-02T00:35:27.954Z,100911.69
2023-04-02T00:37:56.997Z,100912.53
2023-04-02T00:40:31.103Z,100924.75
2023-04-02T00:43:04.369Z,100919.66
2023-04-02T00:45:38.278Z,100931.84
2023-04-02T00:48:43.557Z,100939.69
2023-04-02T00:51:32.493Z,100939.72
2023-04-02T00:54:07.136Z,100935.66
2023-04-02T00:56:51.898Z,100935.34
2023-04-02T01:00:08.269Z,100951.09
2023-04-02T01:02:38.376Z,100950.22
2023-04-02T01:05:18.183Z,100948.56
2023-04-02T01:08:16.918Z,100965.03
2023-04-02T01:11:08.043Z,100971.09
2023-04-02T01:14:13.422Z,100972.75
2023-04-02T01:17:10.736Z,100986.72
2023-04-02T01:20:38.147Z,100992.91
2023-04-02T01:23:35.578Z,100993.03
2023-04-02T01:26:58.266Z,100997.53
2023-04-02T01:29:38.637Z,100990.78
2023-04-02T01:32:20.079Z,100995.94
2023-04-02T01:34:52.160Z,101005.50
2023-04-02T01:38:18.133Z,101007.34
2023-04-02T01:41:13.787Z,101010.97
2023-04-02T01:44:06.935Z,101026.53
2023-04-02T01:46:41.534Z,101030.94
2023-04-02T01:49:20.642Z,101024.97
2023-04-02T01:51:56.845Z,101038.88
2023-04-02T01:54:28.880Z,101034.50
2023-04-02T01:56:57.516Z,101039.78
2023-04-02T01:59:26.393Z,101045.94
2023-04-02T02:02:02.965Z,101054.63
2023-04-02T02:04:33.892Z,101062.44
2023-04-02T02:07:04.193Z,101062.59
2023-04-02T02:09:36.098Z,101073.00
2023-04-02T02:12:05.338Z,101072.97
2023-04-02T02:14:33.451Z,101083.25
2023-04-02T02:17:04.965Z,101069.38
2023-04-02T02:19:57.122Z,101084.97
2023-04-02T02:22:39.853Z,101090.25
2023-04-02T02:25:21.232Z,101097.22
2023-04-02T02:28:16.059Z,101092.13
2023-04-02T02:31:06.747Z,101099.03
2023-04-02T02:33:44.537Z,101099.78
2023-04-02T02:36:36.921Z,101129.25
2023-04-02T02:39:42.962Z,101119.81
2023-04-02T02:42:40.999Z,101126.84
2023-04-02T02:45:19.289Z,101133.88
2023-04-02T02:47:48.715Z,101137.41
2023-04-02T02:50:31.817Z,101141.06
2023-04-02T02:53:15.775Z,101141.06
2023-04-02T02:55:43.903Z,101151.44
2023-04-02T02:58:26.466Z,101159.22
2023-04-02T03:01:12.871Z,101157.63
2023-04-02T03:03:47.926Z,101162.00
2023-04-02T03:06:20.767Z,101174.19
2023-04-02T03:09:28.295Z,101176.84
2023-04-02T03:12:13.971Z,101174.25
2023-04-02T03:14:53.526Z,101179.34
2023-04-02T03:17:35.925Z,101185.41
2023-04-02T03:20:48.113Z,101189.03
2023-04-02T03:23:43.157Z,101197.78
2023-04-02T03:26:32.295Z,101221.03
2023-04-02T03:29:30.773Z,101220.34
2023-04-02T03:32:16.704Z,101224.84
2023-04-02T03:34:57.207Z,101223.22
2023-04-02T03:37:41.730Z,101228.47
2023-04-02T03:40:44.834Z,101235.41
2023-04-02T03:43:31.687Z,101249.31
2023-04-02T03:46:35.896Z,101251.91
2023-04-02T03:49:25.646Z,101271.88
2023-04-02T03:52:06.280Z,101279.59
2023-04-02T03:54:35.195Z,101286.56
2023-04-02T03:57:04.495Z,101285.66
2023-04-02T03:59:58.331Z,101287.47
2023-04-02T04:02:50.656Z,101294.50
2023-04-02T04:05:50.072Z,101296.19
2023-04-02T04:08:50.406Z,101315.22
2023-04-02T04:11:34.534Z,101310.94
2023-04-02T04:14:45.471Z,101313.66
2023-04-02T04:17:30.130Z,101317.19
2023-04-02T04:20:36.351Z,101327.63
2023-04-02T04:23:36.055Z,101329.41
2023-04-02T04:26:49.528Z,101347.56
2023-04-02T04:29:54.238Z,101351.13
2023-04-02T04:32:50.089Z,101351.19
2023-04-02T04:35:54.653Z,101367.53
2023-04-02T04:38:40.924Z,101373.78
2023-04-02T04:41:32.351Z,101385.06
2023-04-02T04:44:17.221Z,101387.75
2023-04-02T04:47:06.222Z,101388.59
2023-04-02T04:49:48.083Z,101396.44
2023-04-02T04:52:34.626Z,101402.56
2023-04-02T04:55:39.276Z,101412.09
2023-04-02T04:59:22.773Z,101424.25
2023-04-02T05:02:11.913Z,101421.63
2023-04-02T05:05:21.164Z,101426.88
2023-04-02T05:07:59.771Z,101433.75
2023-04-02T05:10:50.884Z,101437.28
2023-04-02T05:13:52.163Z,101442.53
2023-04-02T05:16:36.419Z,101449.34
2023-04-02T05:19:16.989Z,101444.19
2023-04-02T05:22:02.635Z,101451.09
2023-04-02T05:24:57.387Z,101459.69
2023-04-02T05:28:00.019Z,101464.06
2023-04-02T05:30:29.127Z,101465.72
2023-04-02T05:33:18.379Z,101475.22
2023-04-02T05:35:53.572Z,101485.69
2023-04-02T05:38:28.557Z,101491.69
2023-04-02T05:41:36.698Z,101491.78
2023-04-02T05:44:12.320Z,101485.81
2023-04-02T05:47:03.364Z,101498.78
2023-04-02T05:49:41.667Z,101504.91
2023-04-02T05:52:31.420Z,101504.94
2023-04-02T05:55:13.738Z,101508.44
2023-04-02T05:58:13.496Z,101532.72
2023-04-02T06:01:13.056Z,101533.72
2023-04-02T06:04:02.619Z,101542.31
2023-04-02T06:06:39.851Z,101551.91
2023-04-02T06:09:54.180Z,101564.09
2023-04-02T06:13:03.501Z,101561.47
2023-04-02T06:15:39.447Z,101585.66
2023-04-02T06:18:35.703Z,101583.09
2023-04-02T06:21:05.573Z,101585.75
2023-04-02T06:23:42.457Z,101590.97
2023-04-02T06:26:41.789Z,101598.75
2023-04-02T06:29:40.532Z,101607.38
2023-04-02T06:32:13.605Z,101616.88
2023-04-02T06:34:45.912Z,101622.13
2023-04-02T06:37:39.495Z,101613.50
2023-04-02T06:40:21.221Z,101624.78
2023-04-02T06:42:57.427Z,101634.31
2023-04-02T06:45:43.472Z,101637.75
2023-04-02T06:48:34.688Z,101652.44
2023-04-02T06:51:17.095Z,101651.56
2023-04-02T06:53:51.697Z,101654.13
2023-04-02T06:57:07.751Z,101675.78
2023-04-02T06:59:40.914Z,101672.38
2023-04-02T07:02:39.863Z,101693.97
2023-04-02T07:05:13.540Z,101687.00
2023-04-02T07:07:55.474Z,101697.44
2023-04-02T07:10:23.974Z,101707.78
2023-04-02T07:12:52.573Z,101714.72
2023-04-02T07:15:24.151Z,101719.91
2023-04-02T07:17:59.177Z,101734.53
2023-04-02T07:20:39.022Z,101727.59
2023-04-02T07:23:10.455Z,101734.50
2023-04-02T07:25:38.244Z,101743.13
2023-04-02T07:28:07.210Z,101743.13
2023-04-02T07:30:36.498Z,101747.41
2023-04-02T07:33:08.279Z,101754.34
2023-04-02T07:35:40.462Z,101750.03
2023-04-02T07:38:08.114Z,101760.34
2023-04-02T07:40:36.186Z,101761.28
2023-04-02T07:43:06.499Z,101759.56
2023-04-02T07:45:38.034Z,101769.09
2023-04-02T07:48:23.923Z,101775.09
2023-04-02T07:51:00.679Z,101771.63
2023-04-02T07:53:41.465Z,101777.69
2023-04-02T07:56:18.518Z,101779.44
2023-04-02T07:58:47.425Z,101779.44
2023-04-02T08:01:25.155Z,101788.03
2023-04-02T08:04:02.164Z,101796.63
2023-04-02T08:06:30.309Z,101810.44
2023-04-02T08:08:59.407Z,101796.63
2023-04-02T08:11:29.769Z,101806.09
2023-04-02T08:13:59.745Z,101811.28
2023-04-02T08:16:33.203Z,101819.13
2023-04-02T08:19:01.996Z,101819.97
2023-04-02T08:21:37.249Z,101824.28
2023-04-02T08:24:06.444Z,101829.47
2023-04-02T08:26:33.970Z,101834.66
2023-04-02T08:29:12.415Z,101837.16
2023-04-02T08:31:44.958Z,101843.22
2023-04-02T08:34:14.203Z,101856.09
2023-04-02T08:36:45.899Z,101862.09
2023-04-02T08:39:16.119Z,101869.03
2023-04-02T08:42:07.554Z,101872.38
2023-04-02T08:45:25.742Z,101878.50
2023-04-02T08:48:04.078Z,101885.38
2023-04-02T08:53:41.944Z,101894.88
2023-04-02T08:56:27.188Z,101894.88
2023-04-02T08:59:09.558Z,101909.59
2023-04-02T09:02:50.967Z,101914.78
2023-04-02T09:05:34.272Z,101925.16
2023-04-02T09:08:08.104Z,101932.00
2023-04-02T09:10:52.151Z,101928.56
2023-04-02T09:13:33.041Z,101930.28
2023-04-02T09:16:22.345Z,101934.59
2023-04-02T09:18:55.804Z,101937.25
2023-04-02T09:21:45.035Z,101931.22
2023-04-02T09:24:16.218Z,101934.69
2023-04-02T09:26:52.508Z,101949.38
2023-04-02T09:29:45.498Z,101967.47
2023-04-02T09:33:09.927Z,101965.75
2023-04-02T09:35:59.585Z,101979.63
2023-04-02T09:38:33.106Z,101981.38
2023-04-02T09:41:19.866Z,101990.06
2023-04-02T09:43:48.005Z,101983.16
2023-04-02T09:46:26.200Z,101995.22
2023-04-02T09:49:03.784Z,101997.81
2023-04-02T09:51:36.925Z,102005.59
2023-04-02T09:54:24.700Z,102013.34
2023-04-02T09:57:06.794Z,102019.41
2023-04-02T09:59:42.021Z,102019.41
2023-04-02T10:02:34.739Z,102021.06
2023-04-02T10:05:26.598Z,102024.50
2023-04-02T10:08:28.232Z,102040.00
2023-04-02T10:11:06.219Z,102035.69
2023-04-02T10:14:19.081Z,102042.63
2023-04-02T10:17:34.532Z,102055.56
2023-04-02T10:20:25.818Z,102053.00
2023-04-02T10:22:54.574Z,102051.28
2023-04-02T10:25:32.401Z,102059.94
2023-04-02T10:29:12.813Z,102060.72
2023-04-02T10:32:33.029Z,102064.03
2023-04-02T10:35:37.951Z,102066.59
2023-04-02T10:39:17.271Z,102061.31
2023-04-02T10:41:59.022Z,102070.72
2023-04-02T10:45:04.982Z,102077.50
2023-04-02T10:48:17.782Z,102074.75
2023-04-02T10:51:27.100Z,102077.19
2023-04-02T10:54:19.465Z,102081.53
2023-04-02T10:57:32.173Z,102098.72
2023-04-02T11:00:17.316Z,102101.22
2023-04-02T11:03:16.143Z,102099.44
2023-04-02T11:06:00.208Z,102098.56
2023-04-02T11:08:54.270Z,102098.56
2023-04-02T11:11:44.413Z,102107.09
2023-04-02T11:14:39.929Z,102094.03
2023-04-02T11:17:22.741Z,102109.63
2023-04-02T11:20:16.012Z,102114.00
2023-04-02T11:22:46.213Z,102121.75
2023-04-02T11:25:23.148Z,102123.31
2023-04-02T11:27:52.250Z,102132.78
2023-04-02T11:30:28.317Z,102141.44
2023-04-02T11:33:39.198Z,102149.28
2023-04-02T11:37:12.390Z,102143.31
2023-04-02T11:39:58.308Z,102150.28
2023-04-02T11:42:36.656Z,102153.78
2023-04-02T11:45:27.712Z,102154.50
2023-04-02T11:48:21.616Z,102157.06
2023-04-02T11:50:49.942Z,102175.19
2023-04-02T11:53:38.869Z,102172.59
2023-04-02T11:56:53.969Z,102182.22
2023-04-02T11:59:48.821Z,102177.03
2023-04-02T12:02:54.766Z,102186.59
2023-04-02T12:05:38.028Z,102187.44
2023-04-02T12:08:17.058Z,102183.84
2023-04-02T12:11:03.977Z,102192.28
2023-04-02T12:13:50.996Z,102192.75
2023-04-02T12:16:25.475Z,102189.75
2023-04-02T12:18:58.366Z,102190.91
2023-04-02T12:21:34.501Z,102197.16
2023-04-02T12:27:29.391Z,102209.00
2023-04-02T12:34:01.114Z,102210.03
2023-04-02T12:36:29.668Z,102213.84
2023-04-02T12:39:00.783Z,102214.47
2023-04-02T12:41:37.359Z,102209.94
2023-04-02T12:44:21.270Z,102219.66
2023-04-02T12:46:59.292Z,102218.44
2023-04-02T12:49:47.867Z,102211.25
2023-04-02T12:52:29.896Z,102213.56
2023-04-02T12:55:06.954Z,102207.44
2023-04-02T12:57:39.939Z,102207.09
2023-04-02T13:00:25.803Z,102208.03
2023-04-02T13:03:29.940Z,102214.91
2023-04-02T13:06:07.689Z,102217.50
2023-04-02T13:08:43.293Z,102216.09
2023-04-02T13:11:12.995Z,102212.06
2023-04-02T13:13:49.320Z,102206.97
2023-04-02T13:16:28.141Z,102221.69
2023-04-02T13:19:34.174Z,102217.25
2023-04-02T13:22:28.520Z,102225.03
2023-04-02T13:24:56.852Z,102213.88
2023-04-02T13:27:25.503Z,102215.88
2023-04-02T13:30:01.825Z,102215.28
2023-04-02T13:32:32.318Z,102220.91
2023-04-02T13:35:12.005Z,102215.19
2023-04-02T13:37:40.984Z,102216.44
2023-04-02T13:40:18.041Z,102204.06
2023-04-02T13:42:48.723Z,102211.16
2023-04-02T13:49:00.927Z,102222.03
2023-04-02T13:51:39.565Z,102215.72
2023-04-02T13:54:23.052Z,102218.81
2023-04-02T13:59:40.005Z,102220.09
2023-04-02T14:02:21.498Z,102228.53
2023-04-02T14:05:16.923Z,102225.78
2023-04-02T14:12:21.016Z,102233.19
2023-04-02T14:15:13.235Z,102234.25
2023-04-02T14:19:07.667Z,102235.34
2023-04-02T14:22:21.364Z,102252.47
2023-04-02T14:26:40.679Z,102253.34
2023-04-02T14:29:55.627Z,102261.06
2023-04-02T14:32:59.265Z,102261.63
2023-04-02T14:35:41.715Z,102263.97
2023-04-02T14:38:46.508Z,102256.88
2023-04-02T14:42:10.453Z,102257.03
2023-04-02T14:44:58.673Z,102261.38
2023-04-02T14:54:40.416Z,102260.69
2023-04-02T14:57:52.003Z,102279.78
2023-04-02T15:00:48.962Z,102267.38
2023-04-02T15:06:41.921Z,102290.84
2023-04-02T15:09:58.697Z,102269.78
2023-04-02T15:12:43.066Z,102286.25
2023-04-02T15:15:47.778Z,102280.41
2023-04-02T15:18:28.851Z,102290.91
2023-04-02T15:21:57.121Z,102285.31
2023-04-02T15:25:26.594Z,102298.03
2023-04-02T15:28:25.112Z,102287.69
2023-04-02T15:31:05.636Z,102294.91
2023-04-02T15:38:42.308Z,102303.13
2023-04-02T15:42:05.073Z,102306.47
2023-04-02T15:46:00.859Z,102302.50
2023-04-02T15:50:17.351Z,102308.88
2023-04-02T15:53:59.886Z,102317.34
2023-04-02T15:57:11.999Z,102313.50
2023-04-02T16:00:45.743Z,102314.00
2023-04-02T16:04:36.356Z,102316.44
2023-04-02T16:08:30.416Z,102317.34
2023-04-02T16:11:17.267Z,102320.75
2023-04-02T16:18:30.642Z,102320.91
2023-04-02T16:21:15.885Z,102333.13
2023-04-02T16:24:23.913Z,102330.00
2023-04-02T16:28:10.510Z,102343.94
2023-04-02T16:31:44.051Z,102350.19
2023-04-02T16:38:54.324Z,102357.63
2023-04-02T16:42:06.198Z,102360.19
2023-04-02T16:45:19.099Z,102369.34
2023-04-02T16:48:46.637Z,102362.84
2023-04-02T16:59:31.857Z,102381.00
2023-04-02T17:03:03.879Z,102391.63
2023-04-02T17:06:47.149Z,102397.84
2023-04-02T17:13:39.903Z,102407.53
2023-04-02T17:19:25.702Z,102409.63
2023-04-02T17:22:08.166Z,102418.47
2023-04-02T17:25:03.171Z,102432.47
2023-04-02T17:27:56.074Z,102430.78
2023-04-02T17:30:43.632Z,102434.38
2023-04-02T17:33:22.624Z,102444.94
2023-04-02T17:36:36.167Z,102442.44
2023-04-02T17:39:44.337Z,102452.13
2023-04-02T17:43:26.789Z,102454.88
2023-04-02T17:46:36.050Z,102464.56
2023-04-02T17:50:24.268Z,102466.41
2023-04-02T17:53:53.890Z,102467.41
2023-04-02T17:56:40.108Z,102468.34
2023-04-02T17:59:21.734Z,102475.34
2023-04-02T18:02:57.978Z,102472.84
2023-04-02T18:06:16.217Z,102483.38
2023-04-02T18:09:21.177Z,102495.66
2023-04-02T18:12:34.427Z,102497.44
2023-04-02T18:16:06.447Z,102501.88
2023-04-02T18:19:37.411Z,102493.31
2023-04-02T18:22:32.857Z,102502.06
2023-04-02T18:25:24.260Z,102504.75
2023-04-02T18:28:34.647Z,102516.06
2023-04-02T18:32:16.898Z,102524.81
2023-04-02T18:35:10.622Z,102530.09
2023-04-02T18:38:15.951Z,102536.22
2023-04-02T18:42:00.332Z,102534.56
2023-04-02T18:45:48.462Z,102537.22
2023-04-02T18:49:26.586Z,102544.19
2023-04-02T18:52:02.370Z,102546.88
2023-04-02T18:55:28.266Z,102553.84
2023-04-02T18:58:30.921Z,102556.50
2023-04-02T19:01:01.179Z,102560.00
2023-04-02T19:04:05.006Z,102565.22
2023-04-02T19:07:20.147Z,102564.41
2023-04-02T19:09:52.950Z,102571.38
2023-04-02T19:12:36.514Z,102580.94
2023-04-02T19:15:19.557Z,102592.25
2023-04-02T19:18:34.000Z,102595.69
2023-04-02T19:21:48.012Z,102596.56
2023-04-02T19:24:46.145Z,102597.47
2023-04-02T19:28:22.270Z,102601.81
2023-04-02T19:31:20.396Z,102595.78
2023-04-02T19:34:47.325Z,102610.56
2023-04-02T19:37:47.901Z,102614.03
2023-04-02T19:41:14.149Z,102608.84
2023-04-02T19:44:01.386Z,102610.63
2023-04-02T19:46:39.247Z,102608.88
2023-04-02T19:49:35.211Z,102614.09
2023-04-02T19:52:09.006Z,102604.59
2023-04-02T19:54:46.526Z,102609.78
2023-04-02T19:57:20.955Z,102619.34
2023-04-02T20:02:44.821Z,102626.34
2023-04-02T20:05:24.366Z,102629.78
2023-04-02T20:08:09.959Z,102622.00
2023-04-02T20:13:35.504Z,102632.44
2023-04-02T20:25:20.596Z,102633.38
2023-04-02T20:27:49.053Z,102635.06
2023-04-02T20:30:23.404Z,102642.03
2023-04-02T20:32:53.897Z,102645.47
2023-04-02T20:35:21.749Z,102648.06
2023-04-02T20:37:49.094Z,102649.81
2023-04-02T20:40:20.197Z,102667.13
2023-04-02T20:42:53.192Z,102656.75
2023-04-02T20:45:22.605Z,102659.34
2023-04-02T20:47:50.232Z,102653.25
2023-04-02T20:50:17.712Z,102657.59
2023-04-02T20:52:48.169Z,102663.63
2023-04-02T20:55:28.542Z,102662.78
2023-04-02T20:57:55.999Z,102667.09
2023-04-02T21:00:25.350Z,102667.09
2023-04-02T21:02:56.120Z,102667.94
2023-04-02T21:08:16.680Z,102690.44
2023-04-02T21:13:31.700Z,102692.13
2023-04-02T21:16:26.194Z,102692.16
2023-04-02T21:19:06.471Z,102692.16
2023-04-02T21:21:55.247Z,102694.75
2023-04-02T21:24:22.616Z,102699.94
2023-04-02T21:26:53.366Z,102709.47
2023-04-02T21:29:28.620Z,102710.31
2023-04-02T21:31:58.569Z,102706.84
2023-04-02T21:34:30.425Z,102705.09
2023-04-02T21:37:04.291Z,102710.25
2023-04-02T21:39:36.918Z,102719.75
2023-04-02T21:42:06.193Z,102711.09
2023-04-02T21:44:37.957Z,102699.84
2023-04-02T21:52:37.784Z,102706.78
2023-04-02T21:55:06.719Z,102715.44
2023-04-02T21:58:07.850Z,102715.44
2023-04-02T22:00:38.039Z,102709.34
2023-04-02T22:03:10.029Z,102712.84
2023-04-02T22:05:41.406Z,102707.66
2023-04-02T22:11:31.540Z,102713.75
2023-04-02T22:14:23.356Z,102705.97
2023-04-02T22:19:43.550Z,102706.84
2023-04-02T22:22:16.863Z,102724.13
2023-04-02T22:25:00.632Z,102722.38
2023-04-02T22:27:53.726Z,102731.91
2023-04-02T22:30:30.597Z,102729.31
2023-04-02T22:33:02.453Z,102726.69
2023-04-02T22:35:30.951Z,102732.72
2023-04-02T22:38:13.316Z,102724.06
2023-04-02T22:40:46.869Z,102725.78
2023-04-02T22:43:41.966Z,102724.00
2023-04-02T22:46:15.411Z,102730.88
2023-04-02T22:51:45.704Z,102732.47
2023-04-02T23:00:16.293Z,102741.00
2023-04-02T23:03:28.575Z,102733.16
2023-04-02T23:08:55.732Z,102734.81
2023-04-02T23:14:30.159Z,102741.69
2023-04-02T23:22:30.557Z,102745.94
2023-04-02T23:28:14.668Z,102745.94
2023-04-02T23:30:51.974Z,102750.19
2023-04-02T23:33:50.020Z,102742.38
2023-04-02T23:36:40.025Z,102751.03
2023-04-02T23:42:13.903Z,102758.75
2023-04-02T23:56:50.625Z,102756.03
